Labuan, Malaysia
Current Conditions -  °F | °C
As of 11:00 AM on Sunday 26 Oct 2014 (Local Time) from WBKL Reporting Station
Broken Clouds Broken Clouds  
Wind Chill: 82°   Ceiling: 28000
Heat Index: 89°   Visibility: 6mi
Dew Point: 75°   Wind: 5mph
Humidity: 79%   Direction: 210°SSW
Pressure: 29.91"   Gusts: NA
Location:  5.29°N, 115.24°E
Report Text: WBKL 260300Z 21004KT 9999 FEW010 SCT140 BKN280 28/24 Q1013
Loading
Personal Weather Stations






























Interactive Weather Map
Tropical Storm Tracking
New forecast layout! Learn more

10-Day Weather Forecast

Advertisements
Track Severe Weather on mobile